createdAt,value
2022-12-16T00:01:38.008Z,-0.40
2022-12-16T00:05:44.421Z,-0.30
2022-12-16T00:09:47.681Z,-0.30
2022-12-16T00:14:27.494Z,-0.40
2022-12-16T00:18:30.533Z,-0.40
2022-12-16T00:22:33.564Z,-0.40
2022-12-16T00:26:36.617Z,-0.40
2022-12-16T00:30:41.381Z,-0.40
2022-12-16T00:34:44.433Z,-0.40
2022-12-16T00:38:47.491Z,-0.40
2022-12-16T00:42:50.561Z,-0.40
2022-12-16T00:46:56.641Z,-0.40
2022-12-16T00:51:33.495Z,-0.40
2022-12-16T00:55:36.579Z,-0.40
2022-12-16T00:59:39.613Z,-0.40
2022-12-16T01:03:44.101Z,-0.40
2022-12-16T01:07:53.208Z,-0.40
2022-12-16T01:11:56.818Z,-0.40
2022-12-16T01:16:01.927Z,-0.40
2022-12-16T01:20:07.707Z,-0.40
2022-12-16T01:24:41.608Z,-0.30
2022-12-16T01:28:44.989Z,-0.30
2022-12-16T01:32:48.061Z,-0.30
2022-12-16T01:36:52.485Z,-0.30
2022-12-16T01:40:55.792Z,-0.30
2022-12-16T01:45:19.266Z,-0.30
2022-12-16T01:49:27.118Z,-0.30
2022-12-16T01:53:32.465Z,-0.30
2022-12-16T01:57:41.935Z,-0.30
2022-12-16T02:01:45.070Z,-0.30
2022-12-16T02:05:49.322Z,-0.30
2022-12-16T02:09:54.024Z,-0.20
2022-12-16T02:14:23.380Z,-0.20
2022-12-16T02:19:04.000Z,-0.20
2022-12-16T02:23:26.785Z,-0.20
2022-12-16T02:27:58.170Z,-0.20
2022-12-16T02:32:09.316Z,-0.30
2022-12-16T02:36:20.856Z,-0.20
2022-12-16T02:40:28.277Z,-0.30
2022-12-16T02:44:42.771Z,-0.30
2022-12-16T02:48:47.404Z,-0.30
2022-12-16T02:52:51.573Z,-0.40
2022-12-16T02:57:08.761Z,-0.30
2022-12-16T03:01:10.904Z,-0.40
2022-12-16T03:05:21.000Z,-0.40
2022-12-16T03:09:29.772Z,-0.40
2022-12-16T03:13:36.784Z,-0.40
2022-12-16T03:17:40.584Z,-0.40
2022-12-16T03:21:50.501Z,-0.40
2022-12-16T03:25:57.538Z,-0.40
2022-12-16T03:30:06.795Z,-0.40
2022-12-16T03:34:17.807Z,-0.40
2022-12-16T03:38:23.309Z,-0.50
2022-12-16T03:42:27.924Z,-0.50
2022-12-16T03:46:31.021Z,-0.50
2022-12-16T03:50:35.312Z,-0.60
2022-12-16T03:54:39.762Z,-0.70
2022-12-16T03:58:43.086Z,-0.70
2022-12-16T04:02:46.401Z,-0.70
2022-12-16T04:07:10.056Z,-0.70
2022-12-16T04:11:31.699Z,-0.70
2022-12-16T04:15:58.158Z,-0.70
2022-12-16T04:20:18.680Z,-0.80
2022-12-16T04:24:29.880Z,-0.70
2022-12-16T04:28:34.309Z,-0.70
2022-12-16T04:32:51.216Z,-0.70
2022-12-16T04:37:11.784Z,-0.80
2022-12-16T04:41:32.412Z,-0.70
2022-12-16T04:45:54.599Z,-0.80
2022-12-16T04:50:14.963Z,-0.80
2022-12-16T04:54:35.569Z,-0.80
2022-12-16T04:58:56.059Z,-0.80
2022-12-16T05:03:18.074Z,-0.80
2022-12-16T05:07:38.980Z,-0.80
2022-12-16T05:11:59.775Z,-0.90
2022-12-16T05:16:20.265Z,-0.90
2022-12-16T05:20:42.038Z,-0.90
2022-12-16T05:25:02.567Z,-1.00
2022-12-16T05:29:22.974Z,-1.00
2022-12-16T05:33:43.685Z,-1.00
2022-12-16T05:43:21.024Z,-1.00
2022-12-16T05:47:53.609Z,-1.00
2022-12-16T05:52:31.659Z,-1.00
2022-12-16T05:57:04.834Z,-1.00
2022-12-16T06:01:42.249Z,-1.00
2022-12-16T06:06:18.112Z,-1.00
2022-12-16T06:10:53.491Z,-0.90
2022-12-16T06:15:29.542Z,-0.90
2022-12-16T06:20:05.771Z,-0.90
2022-12-16T06:24:26.666Z,-0.90
2022-12-16T06:29:08.225Z,-0.80
2022-12-16T06:33:28.814Z,-0.90
2022-12-16T06:38:07.653Z,-0.80
2022-12-16T06:42:27.801Z,-0.80
2022-12-16T06:47:03.689Z,-0.80
2022-12-16T06:51:39.177Z,-0.80
2022-12-16T06:56:16.577Z,-0.80
2022-12-16T07:00:48.584Z,-0.80
2022-12-16T07:05:46.233Z,-0.80
2022-12-16T07:10:40.657Z,-0.80
2022-12-16T07:15:18.166Z,-0.80
2022-12-16T07:19:50.412Z,-0.80
2022-12-16T07:24:26.419Z,-0.80
2022-12-16T07:29:02.153Z,-0.80
2022-12-16T07:33:23.932Z,-0.80
2022-12-16T07:37:44.590Z,-0.70
2022-12-16T07:42:19.968Z,-0.70
2022-12-16T07:46:55.921Z,-0.60
2022-12-16T07:51:32.846Z,-0.50
2022-12-16T07:55:52.970Z,-0.50
2022-12-16T08:00:14.479Z,-0.50
2022-12-16T08:04:50.068Z,-0.40
2022-12-16T08:09:12.625Z,-0.30
2022-12-16T08:13:33.991Z,-0.20
2022-12-16T08:18:10.510Z,-0.20
2022-12-16T08:22:51.877Z,-0.10
2022-12-16T08:27:14.355Z,0.00
2022-12-16T08:31:49.716Z,0.10
2022-12-16T08:36:26.185Z,0.20
2022-12-16T08:41:02.890Z,0.20
2022-12-16T08:45:39.602Z,0.30
2022-12-16T08:50:14.947Z,0.40
2022-12-16T08:54:50.174Z,0.40
2022-12-16T08:59:26.099Z,0.40
2022-12-16T09:04:02.882Z,0.50
2022-12-16T09:08:35.718Z,0.50
2022-12-16T09:18:27.734Z,0.60
2022-12-16T09:23:19.894Z,0.60
2022-12-16T09:28:17.894Z,0.70
2022-12-16T09:33:12.588Z,0.70
2022-12-16T09:37:48.111Z,0.80
2022-12-16T09:42:40.341Z,0.90
2022-12-16T09:47:11.270Z,1.00
2022-12-16T09:52:05.107Z,1.20
2022-12-16T09:56:46.917Z,1.20
2022-12-16T10:01:18.914Z,1.30
2022-12-16T10:06:02.509Z,1.40
2022-12-16T10:11:02.454Z,1.40
2022-12-16T10:16:00.195Z,1.40
2022-12-16T10:21:00.140Z,1.50
2022-12-16T10:25:27.549Z,1.50
2022-12-16T10:29:58.562Z,1.50
2022-12-16T10:34:35.581Z,1.50
2022-12-16T10:39:32.968Z,1.60
2022-12-16T10:44:12.964Z,1.50
2022-12-16T10:48:53.579Z,1.50
2022-12-16T10:53:21.773Z,1.60
2022-12-16T10:58:18.790Z,1.60
2022-12-16T11:07:58.204Z,1.50
2022-12-16T11:12:42.533Z,1.40
2022-12-16T11:17:34.462Z,1.40
2022-12-16T11:21:56.287Z,1.50
2022-12-16T11:26:25.129Z,1.50
2022-12-16T11:31:00.867Z,1.50
2022-12-16T11:35:23.556Z,1.50
2022-12-16T11:39:49.007Z,1.50
2022-12-16T11:44:20.729Z,1.60
2022-12-16T11:48:54.686Z,1.50
2022-12-16T11:53:51.436Z,1.50
2022-12-16T11:58:22.897Z,1.50
2022-12-16T12:02:50.802Z,1.50
2022-12-16T12:07:48.224Z,1.70
2022-12-16T12:12:13.980Z,1.80
2022-12-16T12:17:11.672Z,1.90
2022-12-16T12:21:42.445Z,1.90
2022-12-16T12:26:10.214Z,2.00
2022-12-16T12:30:33.511Z,1.90
2022-12-16T12:35:03.169Z,1.90
2022-12-16T12:39:38.815Z,1.90
2022-12-16T12:44:42.378Z,1.90
2022-12-16T12:49:17.596Z,1.80
2022-12-16T12:53:46.885Z,1.80
2022-12-16T12:58:18.469Z,1.60
2022-12-16T13:02:43.953Z,1.60
2022-12-16T13:07:05.133Z,1.60
2022-12-16T13:11:41.382Z,1.50
2022-12-16T13:16:03.232Z,1.40
2022-12-16T13:20:45.378Z,1.40
2022-12-16T13:25:08.566Z,1.40
2022-12-16T13:29:43.378Z,1.40
2022-12-16T13:34:19.954Z,1.30
2022-12-16T13:38:41.025Z,1.30
2022-12-16T13:43:20.680Z,1.20
2022-12-16T13:48:05.633Z,1.20
2022-12-16T13:52:36.790Z,1.20
2022-12-16T13:57:02.313Z,1.20
2022-12-16T14:01:28.960Z,1.20
2022-12-16T14:05:54.801Z,1.20
2022-12-16T14:10:41.236Z,1.20
2022-12-16T14:15:07.259Z,1.20
2022-12-16T14:19:38.075Z,1.10
2022-12-16T14:24:09.835Z,1.10
2022-12-16T14:28:42.141Z,1.10
2022-12-16T14:33:02.501Z,1.10
2022-12-16T14:37:57.220Z,1.00
2022-12-16T14:42:18.356Z,1.00
2022-12-16T14:46:47.244Z,1.00
2022-12-16T14:51:07.885Z,1.00
2022-12-16T14:55:33.900Z,0.90
2022-12-16T14:59:55.989Z,0.90
2022-12-16T15:04:19.814Z,0.90
2022-12-16T15:08:49.481Z,0.80
2022-12-16T15:13:09.778Z,0.80
2022-12-16T15:18:08.074Z,0.80
2022-12-16T15:22:35.141Z,0.80
2022-12-16T15:26:55.934Z,0.80
2022-12-16T15:31:24.719Z,0.80
2022-12-16T15:35:50.098Z,0.80
2022-12-16T15:40:40.048Z,0.80
2022-12-16T15:45:07.884Z,0.80
2022-12-16T15:49:40.224Z,0.80
2022-12-16T15:54:01.487Z,0.80
2022-12-16T15:58:45.366Z,0.90
2022-12-16T16:03:08.090Z,0.90
2022-12-16T16:07:33.629Z,0.90
2022-12-16T16:12:31.301Z,0.90
2022-12-16T16:17:34.061Z,0.90
2022-12-16T16:21:54.761Z,0.80
2022-12-16T16:26:15.675Z,0.80
2022-12-16T16:30:51.927Z,0.80
2022-12-16T16:35:29.388Z,0.70
2022-12-16T16:39:50.307Z,0.70
2022-12-16T16:44:27.212Z,0.70
2022-12-16T16:49:12.967Z,0.70
2022-12-16T16:53:49.663Z,0.70
2022-12-16T16:58:29.518Z,0.70
2022-12-16T17:03:02.271Z,0.70
2022-12-16T17:07:37.975Z,0.70
2022-12-16T17:12:15.027Z,0.60
2022-12-16T17:16:35.793Z,0.50
2022-12-16T17:20:56.421Z,0.50
2022-12-16T17:25:33.080Z,0.50
2022-12-16T17:30:10.123Z,0.40
2022-12-16T17:34:45.928Z,0.30
2022-12-16T17:39:34.088Z,0.30
2022-12-16T17:44:07.030Z,0.20
2022-12-16T17:48:46.184Z,0.20
2022-12-16T17:53:06.670Z,0.20
2022-12-16T17:57:41.653Z,0.20
2022-12-16T18:02:17.797Z,0.20
2022-12-16T18:06:54.890Z,0.10
2022-12-16T18:11:32.566Z,0.10
2022-12-16T18:16:33.513Z,0.10
2022-12-16T18:21:28.665Z,0.00
2022-12-16T18:26:15.869Z,-0.10
2022-12-16T18:30:39.844Z,-0.10
2022-12-16T18:35:26.723Z,-0.20
2022-12-16T18:40:23.970Z,-0.20
2022-12-16T18:45:19.724Z,-0.20
2022-12-16T18:49:54.885Z,-0.20
2022-12-16T18:54:52.537Z,-0.20
2022-12-16T18:59:46.561Z,-0.20
2022-12-16T19:04:24.640Z,-0.30
2022-12-16T19:09:00.636Z,-0.20
2022-12-16T19:18:38.086Z,-0.20
2022-12-16T19:23:36.283Z,-0.30
2022-12-16T19:28:32.696Z,-0.30
2022-12-16T19:33:08.331Z,-0.30
2022-12-16T19:37:44.700Z,-0.20
2022-12-16T19:42:20.630Z,-0.20
2022-12-16T19:46:57.795Z,-0.20
2022-12-16T19:51:30.607Z,-0.20
2022-12-16T19:56:12.803Z,-0.20
2022-12-16T20:00:41.858Z,-0.20
2022-12-16T20:05:18.493Z,-0.20
2022-12-16T20:09:54.851Z,-0.20
2022-12-16T20:14:29.092Z,-0.20
2022-12-16T20:19:05.040Z,-0.20
2022-12-16T20:23:42.125Z,-0.30
2022-12-16T20:32:57.715Z,-0.30
2022-12-16T20:37:33.705Z,-0.30
2022-12-16T20:42:10.693Z,-0.40
2022-12-16T20:46:46.892Z,-0.40
2022-12-16T20:51:27.021Z,-0.40
2022-12-16T20:55:59.763Z,-0.40
2022-12-16T21:00:19.298Z,-0.30
2022-12-16T21:04:42.928Z,-0.20
2022-12-16T21:09:15.943Z,-0.10
2022-12-16T21:13:50.964Z,-0.10
2022-12-16T21:14:42.429Z,-0.20
2022-12-16T21:18:17.971Z,-0.10
2022-12-16T21:22:48.052Z,-0.10
2022-12-16T21:27:24.338Z,-0.10
2022-12-16T21:31:44.985Z,0.00
2022-12-16T21:36:11.810Z,0.00
2022-12-16T21:40:41.448Z,0.00
2022-12-16T21:45:17.017Z,-0.10
2022-12-16T21:49:37.337Z,-0.10
2022-12-16T21:54:14.679Z,-0.10
2022-12-16T21:58:51.382Z,-0.20
2022-12-16T22:03:27.490Z,-0.20
2022-12-16T22:07:48.224Z,-0.30
2022-12-16T22:12:25.307Z,-0.40
2022-12-16T22:17:25.262Z,-0.40
2022-12-16T22:21:47.512Z,-0.40
2022-12-16T22:26:23.411Z,-0.30
2022-12-16T22:30:45.207Z,-0.30
2022-12-16T22:35:20.538Z,-0.40
2022-12-16T22:39:44.689Z,-0.40
2022-12-16T22:44:05.662Z,-0.30
2022-12-16T22:48:29.954Z,-0.30
2022-12-16T22:53:02.491Z,-0.30
2022-12-16T22:57:23.573Z,-0.40
2022-12-16T23:01:58.919Z,-0.40
2022-12-16T23:06:22.478Z,-0.50
2022-12-16T23:10:42.801Z,-0.50
2022-12-16T23:15:03.385Z,-0.60
2022-12-16T23:19:24.104Z,-0.70
2022-12-16T23:23:46.442Z,-0.70
2022-12-16T23:28:06.910Z,-0.80
2022-12-16T23:32:27.727Z,-0.80
2022-12-16T23:36:48.436Z,-0.80
2022-12-16T23:41:29.198Z,-0.80
2022-12-16T23:50:34.525Z,-0.80
2022-12-16T23:55:10.377Z,-0.90
2022-12-16T23:59:48.247Z,-0.90
